sensor_id;sensor_type;location;lat;lon;timestamp;pressure;altitude;pressure_sealevel;temperature;humidity
47815;BME280;33579;50.058;18.130;2022-09-17T00:00:17;98257.16;;;11.79;100.00
47815;BME280;33579;50.058;18.130;2022-09-17T00:01:21;98254.66;;;11.78;100.00
47815;BME280;33579;50.058;18.130;2022-09-17T00:02:23;98261.56;;;11.71;100.00
47815;BME280;33579;50.058;18.130;2022-09-17T00:03:25;98251.84;;;11.63;100.00
47815;BME280;33579;50.058;18.130;2022-09-17T00:04:27;98255.13;;;11.65;100.00
47815;BME280;33579;50.058;18.130;2022-09-17T00:05:29;98251.34;;;11.59;100.00
47815;BME280;33579;50.058;18.130;2022-09-17T00:06:33;98262.22;;;11.56;100.00
47815;BME280;33579;50.058;18.130;2022-09-17T00:07:35;98259.09;;;11.52;100.00
47815;BME280;33579;50.058;18.130;2022-09-17T00:08:37;98252.16;;;11.51;100.00
47815;BME280;33579;50.058;18.130;2022-09-17T00:09:39;98253.34;;;11.49;100.00
47815;BME280;33579;50.058;18.130;2022-09-17T00:10:42;98250.38;;;11.52;100.00
47815;BME280;33579;50.058;18.130;2022-09-17T00:11:44;98247.56;;;11.62;100.00
47815;BME280;33579;50.058;18.130;2022-09-17T00:12:46;98251.19;;;11.61;100.00
47815;BME280;33579;50.058;18.130;2022-09-17T00:13:49;98247.75;;;11.52;100.00
47815;BME280;33579;50.058;18.130;2022-09-17T00:14:51;98247.41;;;11.55;100.00
47815;BME280;33579;50.058;18.130;2022-09-17T00:15:52;98246.91;;;11.51;100.00
47815;BME280;33579;50.058;18.130;2022-09-17T00:16:54;98256.28;;;11.54;100.00
47815;BME280;33579;50.058;18.130;2022-09-17T00:18:02;98257.78;;;11.57;100.00
47815;BME280;33579;50.058;18.130;2022-09-17T00:19:05;98251.38;;;11.51;100.00
47815;BME280;33579;50.058;18.130;2022-09-17T00:20:07;98258.59;;;11.49;100.00
47815;BME280;33579;50.058;18.130;2022-09-17T00:21:17;98250.84;;;11.39;100.00
47815;BME280;33579;50.058;18.130;2022-09-17T00:22:19;98255.13;;;11.40;100.00
47815;BME280;33579;50.058;18.130;2022-09-17T00:23:20;98257.09;;;11.38;100.00
47815;BME280;33579;50.058;18.130;2022-09-17T00:24:22;98261.38;;;11.39;100.00
47815;BME280;33579;50.058;18.130;2022-09-17T00:25:23;98258.06;;;11.37;100.00
47815;BME280;33579;50.058;18.130;2022-09-17T00:26:26;98259.06;;;11.36;100.00
47815;BME280;33579;50.058;18.130;2022-09-17T00:27:28;98261.53;;;11.29;100.00
47815;BME280;33579;50.058;18.130;2022-09-17T00:28:30;98266.78;;;11.29;100.00
47815;BME280;33579;50.058;18.130;2022-09-17T00:29:31;98260.53;;;11.30;100.00
47815;BME280;33579;50.058;18.130;2022-09-17T00:30:33;98268.63;;;11.37;100.00
47815;BME280;33579;50.058;18.130;2022-09-17T00:31:35;98267.47;;;11.39;100.00
47815;BME280;33579;50.058;18.130;2022-09-17T00:32:36;98263.69;;;11.34;100.00
47815;BME280;33579;50.058;18.130;2022-09-17T00:33:38;98268.63;;;11.37;100.00
47815;BME280;33579;50.058;18.130;2022-09-17T00:34:41;98270.91;;;11.40;100.00
47815;BME280;33579;50.058;18.130;2022-09-17T00:35:43;98279.31;;;11.44;100.00
47815;BME280;33579;50.058;18.130;2022-09-17T00:36:44;98269.13;;;11.41;100.00
47815;BME280;33579;50.058;18.130;2022-09-17T00:37:46;98271.75;;;11.41;100.00
47815;BME280;33579;50.058;18.130;2022-09-17T00:38:52;98266.34;;;11.42;100.00
47815;BME280;33579;50.058;18.130;2022-09-17T00:39:54;98274.22;;;11.50;100.00
47815;BME280;33579;50.058;18.130;2022-09-17T00:40:56;98271.94;;;11.47;100.00
47815;BME280;33579;50.058;18.130;2022-09-17T00:41:57;98272.25;;;11.52;100.00
47815;BME280;33579;50.058;18.130;2022-09-17T00:42:59;98272.09;;;11.54;100.00
47815;BME280;33579;50.058;18.130;2022-09-17T00:45:41;98269.94;;;11.41;100.00
47815;BME280;33579;50.058;18.130;2022-09-17T00:46:42;98268.81;;;11.52;100.00
47815;BME280;33579;50.058;18.130;2022-09-17T00:47:47;98270.63;;;11.60;100.00
47815;BME280;33579;50.058;18.130;2022-09-17T00:48:54;98271.28;;;11.62;100.00
47815;BME280;33579;50.058;18.130;2022-09-17T00:50:05;98274.44;;;11.74;100.00
47815;BME280;33579;50.058;18.130;2022-09-17T00:51:08;98271.63;;;11.84;100.00
47815;BME280;33579;50.058;18.130;2022-09-17T00:52:15;98272.28;;;11.86;100.00
47815;BME280;33579;50.058;18.130;2022-09-17T00:53:19;98261.09;;;11.84;100.00
47815;BME280;33579;50.058;18.130;2022-09-17T00:54:23;98274.59;;;11.72;100.00
47815;BME280;33579;50.058;18.130;2022-09-17T00:55:31;98264.84;;;11.73;100.00
47815;BME280;33579;50.058;18.130;2022-09-17T00:56:35;98266.53;;;11.74;100.00
47815;BME280;33579;50.058;18.130;2022-09-17T00:57:38;98265.69;;;11.73;100.00
47815;BME280;33579;50.058;18.130;2022-09-17T00:58:41;98265.53;;;11.75;100.00
47815;BME280;33579;50.058;18.130;2022-09-17T00:59:43;98264.56;;;11.76;100.00
47815;BME280;33579;50.058;18.130;2022-09-17T01:00:44;98261.25;;;11.74;100.00
47815;BME280;33579;50.058;18.130;2022-09-17T01:01:46;98254.81;;;11.76;100.00
47815;BME280;33579;50.058;18.130;2022-09-17T01:02:47;98256.47;;;11.77;100.00
47815;BME280;33579;50.058;18.130;2022-09-17T01:03:49;98254.81;;;11.76;100.00
47815;BME280;33579;50.058;18.130;2022-09-17T01:04:50;98260.25;;;11.66;100.00
47815;BME280;33579;50.058;18.130;2022-09-17T01:06:02;98257.63;;;11.50;100.00
47815;BME280;33579;50.058;18.130;2022-09-17T01:07:14;98252.97;;;11.27;100.00
47815;BME280;33579;50.058;18.130;2022-09-17T01:09:48;98245.38;;;11.16;100.00
47815;BME280;33579;50.058;18.130;2022-09-17T01:11:10;98253.09;;;11.17;100.00
47815;BME280;33579;50.058;18.130;2022-09-17T01:12:22;98248.66;;;11.18;100.00
47815;BME280;33579;50.058;18.130;2022-09-17T01:15:23;98243.69;;;11.06;100.00
47815;BME280;33579;50.058;18.130;2022-09-17T01:16:47;98246.97;;;11.00;100.00
47815;BME280;33579;50.058;18.130;2022-09-17T01:19:41;98243.66;;;10.90;100.00
47815;BME280;33579;50.058;18.130;2022-09-17T01:21:15;98244.78;;;10.87;100.00
47815;BME280;33579;50.058;18.130;2022-09-17T01:25:23;98235.25;;;10.86;100.00
47815;BME280;33579;50.058;18.130;2022-09-17T01:26:43;98234.41;;;10.86;100.00
47815;BME280;33579;50.058;18.130;2022-09-17T01:30:36;98236.28;;;11.02;100.00
47815;BME280;33579;50.058;18.130;2022-09-17T01:31:58;98233.31;;;10.96;100.00
47815;BME280;33579;50.058;18.130;2022-09-17T01:33:31;98229.84;;;10.96;100.00
47815;BME280;33579;50.058;18.130;2022-09-17T01:34:44;98235.28;;;10.94;100.00
47815;BME280;33579;50.058;18.130;2022-09-17T01:37:12;98229.66;;;10.81;100.00
47815;BME280;33579;50.058;18.130;2022-09-17T01:40:00;98228.13;;;10.70;100.00
47815;BME280;33579;50.058;18.130;2022-09-17T01:42:55;98233.50;;;10.60;100.00
47815;BME280;33579;50.058;18.130;2022-09-17T01:44:06;98234.50;;;10.59;100.00
47815;BME280;33579;50.058;18.130;2022-09-17T01:46:26;98233.66;;;10.59;100.00
47815;BME280;33579;50.058;18.130;2022-09-17T01:47:35;98232.00;;;10.58;100.00
47815;BME280;33579;50.058;18.130;2022-09-17T01:48:41;98234.50;;;10.59;100.00
47815;BME280;33579;50.058;18.130;2022-09-17T01:49:44;98233.66;;;10.59;100.00
47815;BME280;33579;50.058;18.130;2022-09-17T01:50:51;98229.06;;;10.61;100.00
47815;BME280;33579;50.058;18.130;2022-09-17T01:51:53;98229.88;;;10.61;100.00
47815;BME280;33579;50.058;18.130;2022-09-17T01:52:56;98230.72;;;10.62;100.00
47815;BME280;33579;50.058;18.130;2022-09-17T01:54:06;98230.72;;;10.62;100.00
47815;BME280;33579;50.058;18.130;2022-09-17T01:55:14;98229.09;;;10.69;100.00
47815;BME280;33579;50.058;18.130;2022-09-17T01:56:20;98234.81;;;10.64;100.00
47815;BME280;33579;50.058;18.130;2022-09-17T01:57:32;98230.34;;;10.57;100.00
47815;BME280;33579;50.058;18.130;2022-09-17T01:58:40;98228.72;;;10.56;100.00
47815;BME280;33579;50.058;18.130;2022-09-17T01:59:48;98228.19;;;10.52;100.00
47815;BME280;33579;50.058;18.130;2022-09-17T02:00:57;98218.66;;;10.51;100.00
47815;BME280;33579;50.058;18.130;2022-09-17T02:02:09;98222.75;;;10.45;100.00
47815;BME280;33579;50.058;18.130;2022-09-17T02:03:25;98220.47;;;10.50;100.00
47815;BME280;33579;50.058;18.130;2022-09-17T02:04:33;98221.44;;;10.49;100.00
47815;BME280;33579;50.058;18.130;2022-09-17T02:06:04;98220.63;;;10.49;100.00
47815;BME280;33579;50.058;18.130;2022-09-17T02:07:08;98226.56;;;10.51;100.00
47815;BME280;33579;50.058;18.130;2022-09-17T02:08:17;98223.25;;;10.49;100.00
47815;BME280;33579;50.058;18.130;2022-09-17T02:09:25;98228.66;;;10.47;100.00
47815;BME280;33579;50.058;18.130;2022-09-17T02:10:31;98230.63;;;10.45;100.00
47815;BME280;33579;50.058;18.130;2022-09-17T02:11:36;98224.63;;;10.35;100.00
47815;BME280;33579;50.058;18.130;2022-09-17T02:12:43;98227.63;;;10.40;100.00
47815;BME280;33579;50.058;18.130;2022-09-17T02:15:00;98229.97;;;10.43;100.00
47815;BME280;33579;50.058;18.130;2022-09-17T02:16:25;98233.19;;;10.37;100.00
47815;BME280;33579;50.058;18.130;2022-09-17T02:17:34;98230.72;;;10.35;100.00
47815;BME280;33579;50.058;18.130;2022-09-17T02:19:05;98231.38;;;10.37;100.00
47815;BME280;33579;50.058;18.130;2022-09-17T02:20:09;98235.81;;;10.37;100.00
47815;BME280;33579;50.058;18.130;2022-09-17T02:22:24;98235.75;;;10.47;100.00
47815;BME280;33579;50.058;18.130;2022-09-17T02:23:33;98233.13;;;10.47;100.00
47815;BME280;33579;50.058;18.130;2022-09-17T02:24:46;98239.38;;;10.54;100.00
47815;BME280;33579;50.058;18.130;2022-09-17T02:26:07;98234.28;;;10.52;100.00
47815;BME280;33579;50.058;18.130;2022-09-17T02:28:41;98248.25;;;10.53;100.00
47815;BME280;33579;50.058;18.130;2022-09-17T02:29:44;98245.16;;;10.58;100.00
47815;BME280;33579;50.058;18.130;2022-09-17T02:30:45;98246.28;;;10.55;100.00
47815;BME280;33579;50.058;18.130;2022-09-17T02:31:47;98247.59;;;10.51;100.00
47815;BME280;33579;50.058;18.130;2022-09-17T02:32:49;98247.59;;;10.51;100.00
47815;BME280;33579;50.058;18.130;2022-09-17T02:33:54;98244.50;;;10.56;100.00
47815;BME280;33579;50.058;18.130;2022-09-17T02:34:57;98241.25;;;10.62;100.00
47815;BME280;33579;50.058;18.130;2022-09-17T02:35:59;98251.78;;;10.70;100.00
47815;BME280;33579;50.058;18.130;2022-09-17T02:37:01;98253.28;;;10.73;100.00
47815;BME280;33579;50.058;18.130;2022-09-17T02:38:03;98244.59;;;10.80;100.00
47815;BME280;33579;50.058;18.130;2022-09-17T02:39:04;98247.88;;;10.82;100.00
47815;BME280;33579;50.058;18.130;2022-09-17T02:40:07;98248.25;;;10.88;100.00
47815;BME280;33579;50.058;18.130;2022-09-17T02:41:37;98247.41;;;10.87;100.00
47815;BME280;33579;50.058;18.130;2022-09-17T02:42:51;98249.53;;;10.83;100.00
47815;BME280;33579;50.058;18.130;2022-09-17T02:44:06;98245.44;;;10.81;100.00
47815;BME280;33579;50.058;18.130;2022-09-17T02:50:45;98240.53;;;10.51;100.00
47815;BME280;33579;50.058;18.130;2022-09-17T02:51:59;98243.78;;;10.45;100.00
47815;BME280;33579;50.058;18.130;2022-09-17T02:53:11;98242.88;;;10.36;100.00
47815;BME280;33579;50.058;18.130;2022-09-17T02:54:19;98240.25;;;10.36;100.00
47815;BME280;33579;50.058;18.130;2022-09-17T02:55:51;98242.53;;;10.31;100.00
47815;BME280;33579;50.058;18.130;2022-09-17T02:57:11;98237.09;;;10.33;100.00
47815;BME280;33579;50.058;18.130;2022-09-17T02:59:23;98228.09;;;10.35;100.00
47815;BME280;33579;50.058;18.130;2022-09-17T03:00:25;98232.88;;;10.40;100.00
47815;BME280;33579;50.058;18.130;2022-09-17T03:01:38;98231.63;;;10.44;100.00
47815;BME280;33579;50.058;18.130;2022-09-17T03:02:44;98230.94;;;10.42;100.00
47815;BME280;33579;50.058;18.130;2022-09-17T03:03:48;98230.25;;;10.40;100.00
47815;BME280;33579;50.058;18.130;2022-09-17T03:04:51;98230.63;;;10.45;100.00
47815;BME280;33579;50.058;18.130;2022-09-17T03:05:54;98231.25;;;10.39;100.00
47815;BME280;33579;50.058;18.130;2022-09-17T03:06:56;98228.63;;;10.39;100.00
47815;BME280;33579;50.058;18.130;2022-09-17T03:07:58;98232.59;;;10.43;100.00
47815;BME280;33579;50.058;18.130;2022-09-17T03:09:00;98225.53;;;10.44;100.00
47815;BME280;33579;50.058;18.130;2022-09-17T03:10:03;98230.03;;;10.51;100.00
47815;BME280;33579;50.058;18.130;2022-09-17T03:11:05;98224.44;;;10.54;100.00
47815;BME280;33579;50.058;18.130;2022-09-17T03:12:07;98222.63;;;10.55;100.00
47815;BME280;33579;50.058;18.130;2022-09-17T03:13:09;98223.13;;;10.59;100.00
47815;BME280;33579;50.058;18.130;2022-09-17T03:14:10;98227.72;;;10.57;100.00
47815;BME280;33579;50.058;18.130;2022-09-17T03:15:12;98222.78;;;10.53;100.00
47815;BME280;33579;50.058;18.130;2022-09-17T03:16:13;98210.44;;;10.54;100.00
47815;BME280;33579;50.058;18.130;2022-09-17T03:17:15;98209.47;;;10.55;100.00
47815;BME280;33579;50.058;18.130;2022-09-17T03:18:16;98202.56;;;10.54;100.00
47815;BME280;33579;50.058;18.130;2022-09-17T03:19:18;98204.00;;;10.48;100.00
47815;BME280;33579;50.058;18.130;2022-09-17T03:20:19;98203.97;;;10.40;100.00
47815;BME280;33579;50.058;18.130;2022-09-17T03:21:21;98204.66;;;10.42;100.00
47815;BME280;33579;50.058;18.130;2022-09-17T03:22:22;98199.00;;;10.37;100.00
47815;BME280;33579;50.058;18.130;2022-09-17T03:23:24;98198.97;;;10.29;100.00
47815;BME280;33579;50.058;18.130;2022-09-17T03:24:25;98206.19;;;10.26;100.00
47815;BME280;33579;50.058;18.130;2022-09-17T03:25:27;98204.84;;;10.22;100.00
47815;BME280;33579;50.058;18.130;2022-09-17T03:26:30;98209.75;;;10.17;100.00
47815;BME280;33579;50.058;18.130;2022-09-17T03:27:31;98205.09;;;10.11;100.00
47815;BME280;33579;50.058;18.130;2022-09-17T03:28:33;98208.69;;;10.02;100.00
47815;BME280;33579;50.058;18.130;2022-09-17T03:29:34;98207.25;;;10.07;100.00
47815;BME280;33579;50.058;18.130;2022-09-17T03:30:36;98210.06;;;10.14;100.00
47815;BME280;33579;50.058;18.130;2022-09-17T03:31:37;98198.88;;;10.12;100.00
47815;BME280;33579;50.058;18.130;2022-09-17T03:32:39;98207.28;;;10.16;100.00
47815;BME280;33579;50.058;18.130;2022-09-17T03:33:41;98206.16;;;10.18;100.00
47815;BME280;33579;50.058;18.130;2022-09-17T03:34:42;98207.13;;;10.17;100.00
47815;BME280;33579;50.058;18.130;2022-09-17T03:35:44;98200.88;;;10.18;100.00
47815;BME280;33579;50.058;18.130;2022-09-17T03:36:46;98200.22;;;10.16;100.00
47815;BME280;33579;50.058;18.130;2022-09-17T03:37:47;98205.41;;;10.08;100.00
47815;BME280;33579;50.058;18.130;2022-09-17T03:38:55;98202.13;;;10.06;100.00
47815;BME280;33579;50.058;18.130;2022-09-17T03:39:56;98209.03;;;10.07;100.00
47815;BME280;33579;50.058;18.130;2022-09-17T03:40:59;98207.25;;;10.07;100.00
47815;BME280;33579;50.058;18.130;2022-09-17T03:42:01;98204.63;;;10.07;100.00
47815;BME280;33579;50.058;18.130;2022-09-17T03:43:03;98201.00;;;10.08;100.00
47815;BME280;33579;50.058;18.130;2022-09-17T03:44:04;98203.84;;;10.15;100.00
47815;BME280;33579;50.058;18.130;2022-09-17T03:45:06;98201.81;;;10.09;100.00
47815;BME280;33579;50.058;18.130;2022-09-17T03:46:08;98201.81;;;10.09;100.00
47815;BME280;33579;50.058;18.130;2022-09-17T03:47:10;98204.22;;;10.02;100.00
47815;BME280;33579;50.058;18.130;2022-09-17T03:48:11;98200.09;;;9.99;100.00
47815;BME280;33579;50.058;18.130;2022-09-17T03:49:13;98195.16;;;9.96;100.00
47815;BME280;33579;50.058;18.130;2022-09-17T03:50:14;98196.00;;;9.97;100.00
47815;BME280;33579;50.058;18.130;2022-09-17T03:51:16;98191.81;;;9.86;100.00
47815;BME280;33579;50.058;18.130;2022-09-17T03:52:17;98189.03;;;9.88;100.00
47815;BME280;33579;50.058;18.130;2022-09-17T03:53:19;98194.09;;;9.81;100.00
47815;BME280;33579;50.058;18.130;2022-09-17T03:54:20;98201.81;;;9.82;100.00
47815;BME280;33579;50.058;18.130;2022-09-17T03:55:22;98201.13;;;9.80;100.00
47815;BME280;33579;50.058;18.130;2022-09-17T03:56:23;98197.25;;;9.84;100.00
47815;BME280;33579;50.058;18.130;2022-09-17T03:57:24;98207.28;;;9.89;100.00
47815;BME280;33579;50.058;18.130;2022-09-17T03:58:27;98204.13;;;9.86;100.00
47815;BME280;33579;50.058;18.130;2022-09-17T03:59:29;98205.41;;;9.81;100.00
47815;BME280;33579;50.058;18.130;2022-09-17T04:00:31;98205.38;;;9.73;100.00
47815;BME280;33579;50.058;18.130;2022-09-17T04:01:32;98207.53;;;9.78;100.00
47815;BME280;33579;50.058;18.130;2022-09-17T04:02:34;98206.91;;;9.84;100.00
47815;BME280;33579;50.058;18.130;2022-09-17T04:03:36;98197.53;;;9.81;100.00
47815;BME280;33579;50.058;18.130;2022-09-17T04:04:37;98189.72;;;9.90;100.00
47815;BME280;33579;50.058;18.130;2022-09-17T04:05:39;98196.00;;;9.97;100.00
47815;BME280;33579;50.058;18.130;2022-09-17T04:06:40;98193.06;;;10.00;100.00
47815;BME280;33579;50.058;18.130;2022-09-17T04:07:41;98185.50;;;9.97;100.00
47815;BME280;33579;50.058;18.130;2022-09-17T04:08:43;98193.66;;;9.94;100.00
47815;BME280;33579;50.058;18.130;2022-09-17T04:09:45;98188.41;;;9.94;100.00
47815;BME280;33579;50.058;18.130;2022-09-17T04:10:46;98189.38;;;9.93;100.00
47815;BME280;33579;50.058;18.130;2022-09-17T04:11:48;98191.03;;;9.94;100.00
47815;BME280;33579;50.058;18.130;2022-09-17T04:12:50;98194.44;;;9.86;100.00
47815;BME280;33579;50.058;18.130;2022-09-17T04:13:51;98197.25;;;9.84;100.00
47815;BME280;33579;50.058;18.130;2022-09-17T04:14:53;98191.16;;;9.84;100.00
47815;BME280;33579;50.058;18.130;2022-09-17T04:15:54;98187.25;;;9.88;100.00
47815;BME280;33579;50.058;18.130;2022-09-17T04:16:57;98184.31;;;9.91;100.00
47815;BME280;33579;50.058;18.130;2022-09-17T04:17:58;98185.50;;;9.97;100.00
47815;BME280;33579;50.058;18.130;2022-09-17T04:19:00;98179.47;;;10.05;100.00
47815;BME280;33579;50.058;18.130;2022-09-17T04:20:03;98183.06;;;10.04;100.00
47815;BME280;33579;50.058;18.130;2022-09-17T04:21:05;98186.00;;;10.01;100.00
47815;BME280;33579;50.058;18.130;2022-09-17T04:22:07;98180.75;;;10.01;100.00
47815;BME280;33579;50.058;18.130;2022-09-17T04:23:11;98178.34;;;10.07;100.00
47815;BME280;33579;50.058;18.130;2022-09-17T04:24:13;98178.69;;;10.12;100.00
47815;BME280;33579;50.058;18.130;2022-09-17T04:25:14;98180.84;;;10.17;100.00
47815;BME280;33579;50.058;18.130;2022-09-17T04:26:16;98176.72;;;10.15;100.00
47815;BME280;33579;50.058;18.130;2022-09-17T04:27:17;98173.75;;;10.18;100.00
47815;BME280;33579;50.058;18.130;2022-09-17T04:28:19;98172.31;;;10.23;100.00
47815;BME280;33579;50.058;18.130;2022-09-17T04:29:21;98164.94;;;10.27;100.00
47815;BME280;33579;50.058;18.130;2022-09-17T04:30:22;98165.31;;;10.32;100.00
47815;BME280;33579;50.058;18.130;2022-09-17T04:31:24;98157.44;;;10.32;100.00
47815;BME280;33579;50.058;18.130;2022-09-17T04:32:25;98166.72;;;10.45;100.00
47815;BME280;33579;50.058;18.130;2022-09-17T04:33:27;98163.28;;;10.52;100.00
47815;BME280;33579;50.058;18.130;2022-09-17T04:34:28;98167.91;;;10.59;100.00
47815;BME280;33579;50.058;18.130;2022-09-17T04:35:30;98170.53;;;10.59;100.00
47815;BME280;33579;50.058;18.130;2022-09-17T04:36:31;98176.44;;;10.61;100.00
47815;BME280;33579;50.058;18.130;2022-09-17T04:37:33;98168.59;;;10.69;100.00
47815;BME280;33579;50.058;18.130;2022-09-17T04:38:34;98165.63;;;10.72;100.00
47815;BME280;33579;50.058;18.130;2022-09-17T04:39:36;98164.34;;;10.76;100.00
47815;BME280;33579;50.058;18.130;2022-09-17T04:40:39;98165.34;;;10.83;100.00
47815;BME280;33579;50.058;18.130;2022-09-17T04:41:40;98166.84;;;10.86;100.00
47815;BME280;33579;50.058;18.130;2022-09-17T04:42:42;98173.41;;;10.90;100.00
47815;BME280;33579;50.058;18.130;2022-09-17T04:43:43;98173.91;;;10.94;100.00
47815;BME280;33579;50.058;18.130;2022-09-17T04:44:45;98182.97;;;11.00;100.00
47815;BME280;33579;50.058;18.130;2022-09-17T04:45:46;98174.75;;;11.03;100.00
47815;BME280;33579;50.058;18.130;2022-09-17T04:46:48;98182.16;;;11.07;100.00
47815;BME280;33579;50.058;18.130;2022-09-17T04:47:50;98180.03;;;11.11;100.00
47815;BME280;33579;50.058;18.130;2022-09-17T04:48:51;98191.88;;;11.15;100.00
47815;BME280;33579;50.058;18.130;2022-09-17T04:49:53;98188.94;;;11.18;100.00
47815;BME280;33579;50.058;18.130;2022-09-17T04:50:54;98196.19;;;11.24;100.00
47815;BME280;33579;50.058;18.130;2022-09-17T04:51:55;98188.78;;;11.28;100.00
47815;BME280;33579;50.058;18.130;2022-09-17T04:52:57;98191.28;;;11.30;100.00
47815;BME280;33579;50.058;18.130;2022-09-17T04:53:58;98191.09;;;11.31;100.00
47815;BME280;33579;50.058;18.130;2022-09-17T04:55:00;98180.56;;;11.31;100.00
47815;BME280;33579;50.058;18.130;2022-09-17T04:56:01;98186.47;;;11.33;100.00
47815;BME280;33579;50.058;18.130;2022-09-17T04:57:03;98197.00;;;11.33;100.00
47815;BME280;33579;50.058;18.130;2022-09-17T04:58:04;98197.84;;;11.34;100.00
47815;BME280;33579;50.058;18.130;2022-09-17T04:59:06;98197.50;;;11.29;100.00
47815;BME280;33579;50.058;18.130;2022-09-17T05:00:08;98199.47;;;11.18;100.00
47815;BME280;33579;50.058;18.130;2022-09-17T05:01:12;98199.78;;;11.07;100.00
47815;BME280;33579;50.058;18.130;2022-09-17T05:02:13;98199.78;;;11.07;100.00
47815;BME280;33579;50.058;18.130;2022-09-17T05:03:15;98200.78;;;11.06;100.00
47815;BME280;33579;50.058;18.130;2022-09-17T05:04:16;98197.16;;;11.07;100.00
47815;BME280;33579;50.058;18.130;2022-09-17T05:05:19;98196.16;;;11.08;100.00
47815;BME280;33579;50.058;18.130;2022-09-17T05:06:20;98194.69;;;11.14;100.00
47815;BME280;33579;50.058;18.130;2022-09-17T05:07:22;98191.25;;;11.21;100.00
47815;BME280;33579;50.058;18.130;2022-09-17T05:08:23;98194.06;;;11.28;100.00
47815;BME280;33579;50.058;18.130;2022-09-17T05:09:25;98205.09;;;11.32;100.00
47815;BME280;33579;50.058;18.130;2022-09-17T05:10:26;98208.38;;;11.34;100.00
47815;BME280;33579;50.058;18.130;2022-09-17T05:11:28;98210.69;;;11.37;100.00
47815;BME280;33579;50.058;18.130;2022-09-17T05:12:30;98203.44;;;11.39;100.00
47815;BME280;33579;50.058;18.130;2022-09-17T05:13:34;98198.16;;;11.39;100.00
47815;BME280;33579;50.058;18.130;2022-09-17T05:14:36;98198.66;;;11.34;100.00
47815;BME280;33579;50.058;18.130;2022-09-17T05:15:37;98193.72;;;11.31;100.00
47815;BME280;33579;50.058;18.130;2022-09-17T05:16:39;98203.13;;;11.34;100.00
47815;BME280;33579;50.058;18.130;2022-09-17T05:17:40;98205.56;;;11.35;100.00
47815;BME280;33579;50.058;18.130;2022-09-17T05:18:41;98201.13;;;11.36;100.00
47815;BME280;33579;50.058;18.130;2022-09-17T05:19:43;98198.50;;;11.36;100.00
47815;BME280;33579;50.058;18.130;2022-09-17T05:20:44;98209.38;;;11.33;100.00
47815;BME280;33579;50.058;18.130;2022-09-17T05:21:46;98201.81;;;11.30;100.00
47815;BME280;33579;50.058;18.130;2022-09-17T05:22:48;98202.28;;;11.33;100.00
47815;BME280;33579;50.058;18.130;2022-09-17T05:23:50;98199.66;;;11.42;100.00
47815;BME280;33579;50.058;18.130;2022-09-17T05:24:51;98193.06;;;11.46;100.00
47815;BME280;33579;50.058;18.130;2022-09-17T05:25:57;98198.69;;;11.51;100.00
47815;BME280;33579;50.058;18.130;2022-09-17T05:26:58;98195.38;;;11.57;100.00
47815;BME280;33579;50.058;18.130;2022-09-17T05:28:00;98188.47;;;11.64;100.00
47815;BME280;33579;50.058;18.130;2022-09-17T05:29:02;98196.34;;;11.73;100.00
47815;BME280;33579;50.058;18.130;2022-09-17T05:30:04;98191.91;;;11.81;100.00
47815;BME280;33579;50.058;18.130;2022-09-17T05:31:06;98188.94;;;11.85;100.00
47815;BME280;33579;50.058;18.130;2022-09-17T05:32:07;98188.44;;;11.89;100.00
47815;BME280;33579;50.058;18.130;2022-09-17T05:33:09;98203.41;;;11.97;100.00
47815;BME280;33579;50.058;18.130;2022-09-17T05:34:10;98204.44;;;12.04;100.00
47815;BME280;33579;50.058;18.130;2022-09-17T05:35:12;98209.69;;;12.13;100.00
47815;BME280;33579;50.058;18.130;2022-09-17T05:36:13;98207.88;;;12.13;100.00
47815;BME280;33579;50.058;18.130;2022-09-17T05:37:15;98209.34;;;12.16;100.00
47815;BME280;33579;50.058;18.130;2022-09-17T05:38:16;98204.25;;;12.22;100.00
47815;BME280;33579;50.058;18.130;2022-09-17T05:39:18;98203.19;;;12.32;100.00
47815;BME280;33579;50.058;18.130;2022-09-17T05:40:19;98205.53;;;12.35;100.00
47815;BME280;33579;50.058;18.130;2022-09-17T05:41:21;98207.16;;;12.36;100.00
47815;BME280;33579;50.058;18.130;2022-09-17T05:42:22;98213.78;;;12.23;100.00
47815;BME280;33579;50.058;18.130;2022-09-17T05:43:24;98212.00;;;12.07;100.00
47815;BME280;33579;50.058;18.130;2022-09-17T05:44:25;98210.19;;;11.91;100.00
47815;BME280;33579;50.058;18.130;2022-09-17T05:45:27;98203.41;;;11.89;100.00
47815;BME280;33579;50.058;18.130;2022-09-17T05:46:29;98207.72;;;11.81;100.00
47815;BME280;33579;50.058;18.130;2022-09-17T05:47:30;98209.38;;;11.83;100.00
47815;BME280;33579;50.058;18.130;2022-09-17T05:48:32;98211.50;;;11.87;100.00
47815;BME280;33579;50.058;18.130;2022-09-17T05:49:34;98204.75;;;11.85;100.00
47815;BME280;33579;50.058;18.130;2022-09-17T05:50:35;98204.09;;;11.83;100.00
47815;BME280;33579;50.058;18.130;2022-09-17T05:51:37;98202.63;;;11.80;100.00
47815;BME280;33579;50.058;18.130;2022-09-17T05:52:38;98201.97;;;11.78;100.00
47815;BME280;33579;50.058;18.130;2022-09-17T05:53:40;98205.25;;;11.80;100.00
47815;BME280;33579;50.058;18.130;2022-09-17T05:54:41;98205.09;;;11.73;100.00
47815;BME280;33579;50.058;18.130;2022-09-17T05:55:43;98211.34;;;11.72;100.00
47815;BME280;33579;50.058;18.130;2022-09-17T05:56:44;98210.53;;;11.63;100.00
47815;BME280;33579;50.058;18.130;2022-09-17T05:57:45;98209.38;;;11.58;100.00
47815;BME280;33579;50.058;18.130;2022-09-17T05:58:47;98209.19;;;11.59;100.00
47815;BME280;33579;50.058;18.130;2022-09-17T05:59:48;98201.97;;;11.61;100.00